METAR Data
IDs: Format: Raw Decoded Include TAF

Data at: 1411 UTC 12 Dec 2018

PAGY 121353Z AUTO 21021G27KT 10SM BKN060 04/M02 A2923 RMK PK WND 22029/1315 SLP899 T00441017 TSNO $ VIA AUTODIAL
PAGY 121253Z AUTO 22023G30KT 10SM FEW055 SCT070 04/M01 A2922 RMK PK WND 21035/1159 SLP894 T00441011 TSNO $ VIA AUTODIAL
PAGY 121153Z AUTO 21023G28KT 10SM FEW029 BKN055 04/M01 A2920 RMK PK WND 21035/1131 SLP888 60000 70014 T00441006 10056 20039 51029 TSNO $ VIA AUTODIAL
PAGY 121053Z AUTO 20012G26KT 10SM SCT050 SCT060 04/M01 A2918 RMK PK WND 21027/1043 SLP882 T00441011 TSNO $ VIA AUTODIAL
PAGY 120953Z AUTO 21016G23KT 10SM BKN055 05/M02 A2916 RMK SLP874 T00501022 TSNO $ VIA AUTODIAL
PAGY 120853Z AUTO 20013G25KT 10SM FEW048 BKN060 OVC075 05/M01 A2911 RMK PK WND 21031/0756 SLP859 60000 T00501006 400500006 53031 TSNO $ VIA AUTODIAL
PAGY 120753Z AUTO 21025G31KT 10SM BKN060 OVC075 05/00 A2907 RMK PK WND 22031/0752 SLP843 T00500000 TSNO $ VIA AUTODIAL
PAGY 120653Z AUTO 20013G24KT 10SM BKN049 OVC070 04/02 A2905 RMK PK WND 21029/0614 RAB20E42 SLP837 P0000 T00390017 TSNO $ VIA AUTODIAL
PAGY 120553Z AUTO 20019G27KT 10SM BKN060 OVC075 04/02 A2902 RMK PK WND 21032/0526 SLP828 60004 T00440017 10050 20028 53019 TSNO $ VIA AUTODIAL
PAGY 120453Z AUTO 20014G21KT 10SM BKN085 OVC110 04/04 A2901 RMK PK WND 22028/0420 SLP823 T00440039 TSNO $ VIA AUTODIAL
PAGY 120353Z AUTO 21018G23KT 10SM OVC055 04/04 A2898 RMK PK WND 21030/0320 SLP813 T00440039 TSNO $ VIA AUTODIAL
PAGY 120253Z AUTO 21022G30KT 10SM FEW017 BKN070 OVC085 04/ A2896 RMK PK WND 21030/0233 SLP809 60004 T0044 51017 TSNO $ VIA AUTODIAL
PAGY 120153Z AUTO 21021G28KT 10SM FEW049 SCT060 BKN075 04/ A2895 RMK PK WND 19030/0130 RAE23 SLP804 P0000 T0039 TSNO $ VIA AUTODIAL
PAGY 120108Z AUTO 20018G27KT 10SM -RA OVC037 04/03 A2895 RMK PK WND 21027/0102 P0000 T00390033 TSNO $ VIA AUTODIAL
PAGY 120053Z AUTO 20019G30KT 9SM -RA OVC028 04/03 A2894 RMK PK WND 20030/0049 RAB18SNE38 SLP801 P0004 T00390033 TSNO VIA AUTODIAL
PAGY 112353Z AUTO 21021G28KT 5SM -SN BR OVC021 03/02 A2892 RMK PK WND 20028/2318 RAE2255SNB2255 SLP792 P0004 60009 T00280022 10033 20011 53018 TSNO VIA AUTODIAL
PAGY 112311Z AUTO 20021KT 4SM -SN BR OVC026 03/02 A2889 RMK PK WND 20027/2259 RAE2255SNB2255 P0001 T00280017 TSNO VIA AUTODIAL
PAGY 112253Z AUTO 20018G28KT 6SM -RA BR OVC034 03/02 A2889 RMK PK WND 21028/2251 RAE2158B00UPB2158E00 SLP783 P0002 T00280022 TSNO VIA AUTODIAL
PAGY 112211Z AUTO 20012G18KT 6SM -RA BR SCT006 BKN043 OVC049 03/02 A2888 RMK RAE2158B00UPB2158E00 P0001 T00330017 TSNO VIA AUTODIAL
PAGY 112153Z AUTO 00000KT 7SM -RA OVC006 02/02 A2888 RMK RAE21B49UPB21E49 SLP779 P0001 T00220017 TSNO VIA AUTODIAL
PAGY 112138Z AUTO VRB04KT 6SM UP BR OVC007 02/01 A2886 RMK RAE21UPB21 P0001 T00170011 TSNO VIA AUTODIAL
PAGY 112128Z AUTO 00000KT 2 1/2SM UP BR OVC007 02/01 A2887 RMK RAE21UPB21 P0001 T00170011 TSNO VIA AUTODIAL
PAGY 112118Z AUTO 04004KT 3SM -RA BR OVC007 02/01 A2886 RMK P0001 T00170006 TSNO VIA AUTODIAL
PAGY 112106Z AUTO 04004KT 1 1/2SM -RA BR BKN007 OVC011 02/01 A2886 RMK P0000 T00170006 TSNO VIA AUTODIAL
PAGY 112053Z AUTO 04003KT 1 1/4SM -RA BR FEW004 OVC009 02/01 A2886 RMK RAB06 SLP773 P0002 60002 T00170011 51008 TSNO VIA AUTODIAL
PAGY 112049Z AUTO 02003KT 1 1/4SM -RA BR FEW004 OVC009 02/01 A2886 RMK RAB06 P0001 TSNO VIA AUTODIAL
PAGY 112035Z AUTO 04003KT 3/4SM -RA BR VV009 02/01 A2885 RMK RAB06 P0001 T00170006 TSNO VIA AUTODIAL
PAGY 112021Z AUTO 00000KT 1SM -RA BR FEW002 OVC007 02/01 A2886 RMK RAB06 P0000 T00170006 TSNO VIA AUTODIAL
PAGY 111953Z AUTO 00000KT 1/2SM FG OVC005 02/01 A2885 RMK SLP770 T00170006 TSNO VIA AUTODIAL
PAGY 111951Z AUTO 00000KT 1/2SM FG SCT003 OVC007 02/01 A2885 RMK TSNO VIA AUTODIAL
PAGY 111942Z AUTO 00000KT 3/4SM BR BKN003 OVC008 02/01 A2885 RMK T00170011 TSNO VIA AUTODIAL
PAGY 111927Z AUTO 00000KT 3/4SM BR FEW005 OVC010 01/01 A2885 RMK T00110006 TSNO VIA AUTODIAL
PAGY 111909Z AUTO 00000KT 1 1/4SM BR OVC010 01/01 A2884 RMK T00110006 TSNO VIA AUTODIAL
PAGY 111856Z AUTO 00000KT 3/4SM BR VV010 01/01 A2884 RMK T00110006 TSNO VIA AUTODIAL
PAGY 111853Z AUTO 03003KT 1SM BR VV009 01/01 A2884 RMK SLP765 T00110006 TSNO VIA AUTODIAL
PAGY 111837Z AUTO 04003KT 1SM BR VV009 02/01 A2883 RMK T00170006 TSNO VIA AUTODIAL
PAGY 111825Z AUTO 00000KT 1 3/4SM BR SCT005 OVC009 02/01 A2883 RMK T00170006 TSNO VIA AUTODIAL
PAGY 111753Z AUTO 00000KT 4SM BR OVC009 01/01 A2883 RMK UPE08 CIG 004V009 SLP762 P0000 60001 T00110006 10022 20011 53003 TSNO VIA AUTODIAL
PAGY 111738Z AUTO 00000KT 4SM BR OVC009 01/01 A2883 RMK UPE08 P0000 T00110006 TSNO VIA AUTODIAL
PAGY 111703Z AUTO 00000KT 5SM UP BR SCT008 OVC013 01/01 A2881 RMK P0000 T00110006 TSNO $ VIA AUTODIAL
PAGY 111653Z AUTO 00000KT 7SM UP FEW008 OVC015 02/01 A2882 RMK UPE04B26RAB25E51 SLP759 P0001 T00170006 TSNO $ VIA AUTODIAL
PAGY 111651Z AUTO 00000KT 7SM UP FEW008 OVC015 02/01 A2882 RMK UPE04B26RAB25E51 P0000 TSNO $ VIA AUTODIAL
PAGY 111553Z AUTO 00000KT 4SM UP BR FEW006 OVC014 02/01 A2882 RMK RAB03E13 SLP759 P0000 T00170011 TSNO $ VIA AUTODIAL
PAGY 111551Z AUTO 00000KT 4SM UP BR FEW006 OVC014 02/01 A2882 RMK RAB03E13 P0000 TSNO $ VIA AUTODIAL
PAGY 111546Z AUTO 00000KT 4SM UP BR FEW006 OVC016 02/01 A2882 RMK RAB03E13 P0000 T00170006 TSNO $ VIA AUTODIAL
PAGY 111453Z AUTO 00000KT 10SM UP BKN017 OVC037 02/01 A2882 RMK UPB30 SLP759 P0000 60000 T00170006 56010 TSNO $ VIA AUTODIAL
PAGY 111353Z AUTO 03004KT 10SM OVC017 01/01 A2883 RMK UPB35E44 SLP762 P0000 T00110006 TSNO $ VIA AUTODIAL
PAGY 111253Z AUTO 01004KT 10SM OVC016 02/01 A2884 RMK SLP766 T00170006 TSNO $ VIA AUTODIAL
PAGY 111153Z AUTO 03007KT 10SM OVC016 02/01 A2885 RMK SLP770 60007 70087 I6000 T00170006 10028 20006 56014 TSNO $ VIA AUTODIAL
PAGY 111053Z AUTO 05005KT 10SM OVC015 02/01 A2886 RMK SLP773 P0001 T00170006 TSNO $ VIA AUTODIAL
PAGY 110953Z AUTO 10SM OVC015 02/01 A2888 RMK RAE26UPB05E10B26E32 SLP779 P0000 T00170006 TSNO $ VIA AUTODIAL
PAGY 110951Z AUTO 10SM OVC015 02/01 A2888 RMK RAE26UPB05E10B26E32 P0000 TSNO $ VIA AUTODIAL
PAGY 110853Z AUTO 00000KT 9SM -RA OVC012 01/00 A2889 RMK UPB07E16B34E37 SLP784 P0001 60006 I3000 T00110000 400560000 56025 TSNO $ VIA AUTODIAL
PAGY 110753Z AUTO 00000KT 6SM -RA BR OVC011 01/00 A2891 RMK RAB0655UPB05E15SNE0655 SLP789 P0002 I1000 T00060000 TSNO $ VIA AUTODIAL
PAGY 110653Z AUTO 00000KT 4SM -SN BR OVC014 01/00 A2892 RMK RAB32E46 SLP794 P0003 T00060000 TSNO $ VIA AUTODIAL
PAGY 110651Z AUTO 00000KT 4SM -SN BR OVC014 01/00 A2893 RMK RAB32E46 P0003 TSNO $ VIA AUTODIAL
PAGY 110609Z AUTO 03003KT 4SM -SN BR OVC016 01/00 A2896 RMK P0002 T00060000 TSNO $ VIA AUTODIAL
PAGY 110553Z AUTO 03003KT 2 1/2SM -SN BR OVC015 01/01 A2897 RMK VIS 2V3 SLP809 P0011 60063 T00060006 10033 20000 56030 TSNO $ VIA AUTODIAL
PAGY 110545Z AUTO 02003KT 2 1/2SM -SN BR FEW002 OVC015 01/01 A2897 RMK P0010 T00060006 TSNO $ VIA AUTODIAL
PAGY 110538Z AUTO 02003KT 2SM -SN BR OVC015 01/01 A2897 RMK P0009 T00060006 TSNO $ VIA AUTODIAL
PAGY 110522Z AUTO 00000KT 3SM -SN BR OVC015 01/01 A2898 RMK P0007 T00060006 TSNO $ VIA AUTODIAL
PAGY 110512Z AUTO 00000KT 1 1/2SM -SN BR OVC013 01/01 A2899 RMK P0005 T00060006 TSNO $ VIA AUTODIAL
PAGY 110502Z AUTO 00000KT 1 1/4SM -SN BR OVC013 00/00 A2899 RMK P0002 T00000000 TSNO $ VIA AUTODIAL
PAGY 110453Z AUTO 00000KT 2SM -SN BR OVC012 00/00 A2899 RMK SLP819 P0013 T00000000 TSNO $ VIA AUTODIAL
PAGY 110438Z AUTO 00000KT 2 1/2SM -SN BR OVC012 01/01 A2900 RMK P0010 T00060006 TSNO $ VIA AUTODIAL
PAGY 110423Z AUTO 00000KT 3SM -SN BR OVC014 01/01 A2900 RMK P0007 T00060006 TSNO $ VIA AUTODIAL
PAGY 110417Z AUTO 00000KT 1 1/2SM -SN BR OVC014 01/01 A2900 RMK P0005 T00060006 TSNO $ VIA AUTODIAL
PAGY 110353Z AUTO 00000KT 2 1/2SM -SN BR OVC014 01/01 A2901 RMK SLP825 P0012 T00060006 TSNO $ VIA AUTODIAL
PAGY 110338Z AUTO 00000KT 2SM -SN BR OVC014 01/01 A2901 RMK PRESFR P0010 T00060006 TSNO $ VIA AUTODIAL
PAGY 110302Z AUTO 00000KT 1 3/4SM -SN BR OVC014 01/01 A2905 RMK P0002 T00060006 TSNO $ VIA AUTODIAL
PAGY 110253Z AUTO 00000KT 2SM -SN BR OVC014 01/01 A2905 RMK SLP839 P0011 60027 T00060006 58037 TSNO $ VIA AUTODIAL
PAGY 110238Z AUTO 00000KT 2 1/2SM -SN BR OVC014 01/01 A2907 RMK P0007 T00060006 TSNO $ VIA AUTODIAL
PAGY 110228Z AUTO 00000KT 3SM -SN BR OVC014 01/01 A2908 RMK P0005 T00060006 TSNO $ VIA AUTODIAL